Time;durP1;ratioP1;P1;durP2;ratioP2;P2;SDS_P1;SDS_P2;PMS_P1;PMS_P2;Temp;Humidity;BMP_temperature;BMP_pressure;BME280_temperature;BME280_humidity;BME280_pressure;Samples;Min_cycle;Max_cycle;Signal;HPM_P1;HPM_P2
2021/03/21 00:02:00;;;;;;;9.38;6.32;;;6.30;99.90;;;;;;5084815;28;20048;-67
2021/03/21 00:04:25;;;;;;;9.80;6.57;;;6.30;99.90;;;;;;5065030;28;20049;-67
2021/03/21 00:06:51;;;;;;;10.15;6.85;;;6.30;99.90;;;;;;5084681;28;20046;-67
2021/03/21 00:09:17;;;;;;;9.98;7.35;;;6.30;99.90;;;;;;5085419;28;20048;-67
2021/03/21 00:11:43;;;;;;;13.23;7.75;;;6.30;99.90;;;;;;5085649;28;20048;-67
2021/03/21 00:14:09;;;;;;;11.50;6.57;;;6.30;99.90;;;;;;5081116;28;20066;-67
2021/03/21 00:16:35;;;;;;;10.13;7.47;;;6.30;99.90;;;;;;5072951;28;20626;-67
2021/03/21 00:19:03;;;;;;;11.13;7.03;;;6.30;99.90;;;;;;5085291;28;20059;-67
2021/03/21 00:21:29;;;;;;;10.68;7.50;;;6.30;99.90;;;;;;5085298;28;20509;-67
2021/03/21 00:23:55;;;;;;;12.95;7.25;;;6.30;99.90;;;;;;5085284;28;20075;-67
2021/03/21 00:26:20;;;;;;;11.55;7.32;;;6.30;99.90;;;;;;5085116;28;20044;-68
2021/03/21 00:28:46;;;;;;;9.68;7.03;;;6.40;99.90;;;;;;5085303;28;20048;-67
2021/03/21 00:31:14;;;;;;;12.07;8.00;;;6.40;99.90;;;;;;5085689;28;20091;-68
2021/03/21 00:33:41;;;;;;;14.05;8.07;;;6.40;99.90;;;;;;5084983;28;20063;-67
2021/03/21 00:36:10;;;;;;;14.18;8.80;;;6.40;99.90;;;;;;5085235;28;20051;-67
2021/03/21 00:38:38;;;;;;;13.60;8.00;;;6.40;99.90;;;;;;5085061;28;20118;-67
2021/03/21 00:41:07;;;;;;;14.48;9.93;;;6.40;99.90;;;;;;5085394;28;20154;-67
2021/03/21 00:43:34;;;;;;;15.02;9.30;;;6.40;99.90;;;;;;5084959;28;20097;-68
2021/03/21 00:46:00;;;;;;;14.93;9.82;;;6.40;99.90;;;;;;5085094;28;20056;-67
2021/03/21 00:48:38;;;;;;;16.80;10.70;;;6.40;99.90;;;;;;5084955;28;20041;-67
2021/03/21 00:51:04;;;;;;;19.23;10.98;;;6.40;99.90;;;;;;5084975;28;20062;-67
2021/03/21 00:53:30;;;;;;;17.92;10.57;;;6.40;99.90;;;;;;5085073;28;20043;-67
2021/03/21 00:55:56;;;;;;;21.88;11.88;;;6.40;99.90;;;;;;5085112;28;20048;-68
2021/03/21 00:58:23;;;;;;;20.23;11.65;;;6.40;99.90;;;;;;5083513;28;20055;-67
2021/03/21 01:00:52;;;;;;;20.75;10.95;;;6.40;99.90;;;;;;5085066;28;20048;-67
2021/03/21 01:03:18;;;;;;;19.05;11.30;;;6.40;99.90;;;;;;5083009;28;20051;-67
2021/03/21 01:06:01;;;;;;;21.77;13.13;;;6.40;99.90;;;;;;5078911;28;20045;-67
2021/03/21 01:08:28;;;;;;;22.65;11.57;;;6.40;99.90;;;;;;5080063;28;20067;-67
2021/03/21 01:10:57;;;;;;;21.02;12.05;;;6.40;99.90;;;;;;5084874;28;20052;-67
2021/03/21 01:13:23;;;;;;;19.83;11.77;;;6.40;99.90;;;;;;5085456;28;20051;-67
2021/03/21 01:15:50;;;;;;;15.52;10.10;;;6.40;99.90;;;;;;5086557;28;20043;-67
2021/03/21 01:18:19;;;;;;;20.08;11.18;;;6.40;99.90;;;;;;5091395;28;20059;-67
2021/03/21 01:20:46;;;;;;;20.88;11.02;;;6.40;99.90;;;;;;5091024;28;20051;-67
2021/03/21 01:23:12;;;;;;;19.58;9.98;;;6.40;99.90;;;;;;5091335;28;20048;-68
2021/03/21 01:25:38;;;;;;;18.13;9.60;;;6.40;99.90;;;;;;5091017;28;20048;-67
2021/03/21 01:28:17;;;;;;;15.95;8.90;;;6.50;99.90;;;;;;5091859;28;20040;-67
2021/03/21 01:30:42;;;;;;;17.90;9.43;;;6.50;99.90;;;;;;5090792;28;20041;-67
2021/03/21 01:33:08;;;;;;;18.90;10.38;;;6.40;99.90;;;;;;5091032;28;20195;-67
2021/03/21 01:35:34;;;;;;;18.20;9.32;;;6.50;99.90;;;;;;5090858;28;20067;-67
2021/03/21 01:38:00;;;;;;;19.42;9.63;;;6.60;99.90;;;;;;5091325;28;20053;-67
2021/03/21 01:40:26;;;;;;;20.52;9.65;;;6.50;99.90;;;;;;5091658;28;20219;-68
2021/03/21 01:42:52;;;;;;;17.30;10.73;;;6.50;99.90;;;;;;5092123;28;20044;-67
2021/03/21 01:45:41;;;;;;;16.95;10.05;;;6.50;99.90;;;;;;5088103;28;20045;-67
2021/03/21 01:48:15;;;;;;;19.13;10.20;;;6.40;99.90;;;;;;5083739;28;20052;-67
2021/03/21 01:51:05;;;;;;;24.23;9.82;;;6.40;99.90;;;;;;5077422;28;20044;-68
2021/03/21 01:53:34;;;;;;;20.20;10.35;;;6.40;99.90;;;;;;5090596;28;20073;-67
2021/03/21 01:56:00;;;;;;;22.48;10.90;;;6.40;99.90;;;;;;5090541;28;20131;-67
2021/03/21 01:58:29;;;;;;;17.00;9.05;;;6.40;99.90;;;;;;5091032;28;20051;-68
2021/03/21 02:01:01;;;;;;;18.77;9.85;;;6.40;99.90;;;;;;5090866;28;20040;-67
2021/03/21 02:03:27;;;;;;;16.92;9.68;;;6.40;99.90;;;;;;5091406;28;20404;-67
2021/03/21 02:06:34;;;;;;;18.42;10.35;;;6.40;99.90;;;;;;5089902;28;20052;-68
2021/03/21 02:09:27;;;;;;;20.70;9.27;;;6.40;99.90;;;;;;5079346;28;20501;-68
2021/03/21 02:12:04;;;;;;;17.42;8.57;;;6.50;99.90;;;;;;5090928;28;20044;-67
2021/03/21 02:14:45;;;;;;;12.23;7.40;;;6.40;99.90;;;;;;5084872;28;20036;-68
2021/03/21 02:17:27;;;;;;;13.18;5.45;;;6.50;99.90;;;;;;5090940;28;20055;-67
2021/03/21 02:20:13;;;;;;;8.85;5.97;;;6.60;99.90;;;;;;5090226;28;20056;-68
2021/03/21 02:22:52;;;;;;;11.10;5.03;;;6.50;99.90;;;;;;5090672;28;20049;-68
2021/03/21 02:25:40;;;;;;;10.45;5.60;;;6.60;99.90;;;;;;5090829;28;20056;-67
2021/03/21 02:28:14;;;;;;;10.23;4.90;;;6.60;99.90;;;;;;5088484;28;20056;-68
2021/03/21 02:30:47;;;;;;;11.98;5.20;;;6.60;99.90;;;;;;5087527;28;20059;-67
2021/03/21 02:33:28;;;;;;;13.90;5.30;;;6.60;99.90;;;;;;5087323;28;20061;-68
2021/03/21 02:36:06;;;;;;;7.85;4.88;;;6.70;99.90;;;;;;5086936;28;20048;-68
2021/03/21 02:38:47;;;;;;;12.32;4.68;;;6.50;99.90;;;;;;5087592;28;20055;-68
2021/03/21 02:41:23;;;;;;;12.05;4.72;;;6.50;99.90;;;;;;5087149;28;20037;-68
2021/03/21 02:43:59;;;;;;;17.33;5.13;;;6.50;99.90;;;;;;5087731;28;20055;-67
2021/03/21 02:46:33;;;;;;;11.18;5.63;;;6.50;99.90;;;;;;5087238;28;20123;-68
2021/03/21 02:49:13;;;;;;;11.65;5.65;;;6.50;99.90;;;;;;5074994;28;20051;-68
2021/03/21 02:51:45;;;;;;;12.73;5.43;;;6.50;99.90;;;;;;5087513;28;20056;-67
2021/03/21 02:54:28;;;;;;;12.00;5.55;;;6.40;99.90;;;;;;5092639;28;20049;-67
2021/03/21 02:57:06;;;;;;;14.20;5.45;;;6.40;99.90;;;;;;5086740;28;20086;-68
2021/03/21 02:59:36;;;;;;;13.93;5.57;;;6.40;99.90;;;;;;5087049;28;20143;-68
2021/03/21 03:02:13;;;;;;;13.15;4.97;;;6.40;99.90;;;;;;5086642;28;20052;-68
2021/03/21 03:04:54;;;;;;;14.85;5.78;;;6.30;99.90;;;;;;5072993;28;20049;-68
2021/03/21 03:07:26;;;;;;;11.95;4.13;;;6.40;99.90;;;;;;5085806;28;20052;-67
2021/03/21 03:10:00;;;;;;;14.88;6.05;;;6.50;99.90;;;;;;5086844;28;20044;-67
2021/03/21 03:12:38;;;;;;;14.93;5.38;;;6.40;99.90;;;;;;5086607;28;20131;-68
2021/03/21 03:15:13;;;;;;;14.57;5.03;;;6.30;99.90;;;;;;5086625;28;20120;-68
2021/03/21 03:17:51;;;;;;;13.45;5.47;;;6.30;99.90;;;;;;5086820;28;20040;-67
2021/03/21 03:20:39;;;;;;;18.15;5.10;;;6.20;99.90;;;;;;5086216;28;20380;-67
2021/03/21 03:23:26;;;;;;;11.93;4.43;;;6.30;99.90;;;;;;5086442;28;20052;-67
2021/03/21 03:25:59;;;;;;;13.25;5.05;;;6.30;99.90;;;;;;5087176;28;20044;-67
2021/03/21 03:28:33;;;;;;;12.98;4.90;;;6.30;99.90;;;;;;5086559;28;20047;-67
2021/03/21 03:31:08;;;;;;;13.00;4.60;;;6.30;99.90;;;;;;5086080;28;20048;-68
2021/03/21 03:33:35;;;;;;;16.38;5.63;;;6.30;99.90;;;;;;5084754;28;20143;-67
2021/03/21 03:36:04;;;;;;;13.32;4.60;;;6.30;99.90;;;;;;5085883;28;20064;-67
2021/03/21 03:38:30;;;;;;;13.23;5.13;;;6.30;99.90;;;;;;5086430;28;20048;-68
2021/03/21 03:41:01;;;;;;;18.38;4.85;;;6.30;99.90;;;;;;5086273;28;20048;-67
2021/03/21 03:43:56;;;;;;;12.52;4.38;;;6.30;99.90;;;;;;5085952;28;20071;-68
2021/03/21 03:46:35;;;;;;;11.98;3.83;;;6.20;99.90;;;;;;5079745;28;20048;-67
2021/03/21 03:49:31;;;;;;;13.02;4.20;;;6.40;99.90;;;;;;5085858;28;20496;-67
2021/03/21 03:52:11;;;;;;;13.55;4.20;;;6.40;99.90;;;;;;5085775;28;20070;-67
2021/03/21 03:54:58;;;;;;;13.25;3.80;;;6.30;99.90;;;;;;5080790;28;20143;-67
2021/03/21 03:58:01;;;;;;;14.10;4.68;;;6.30;99.90;;;;;;5085861;28;20041;-67
2021/03/21 04:00:39;;;;;;;13.55;3.85;;;6.40;99.90;;;;;;5063401;28;20140;-67
2021/03/21 04:03:23;;;;;;;13.52;3.38;;;6.40;99.90;;;;;;5064421;28;20136;-68
2021/03/21 04:06:00;;;;;;;15.02;3.63;;;6.30;99.90;;;;;;5066476;28;20048;-67
2021/03/21 04:08:32;;;;;;;10.75;3.08;;;6.40;99.90;;;;;;5069538;28;20144;-68
2021/03/21 04:11:06;;;;;;;14.88;3.00;;;6.40;99.90;;;;;;5063375;28;20064;-68
2021/03/21 04:14:00;;;;;;;8.10;2.65;;;6.50;99.90;;;;;;5063565;28;20056;-67
2021/03/21 04:16:35;;;;;;;11.23;2.97;;;6.50;99.90;;;;;;5063164;28;20068;-68
2021/03/21 04:19:12;;;;;;;9.63;2.70;;;6.40;99.90;;;;;;5049550;28;20072;-68
2021/03/21 04:21:51;;;;;;;18.45;3.17;;;6.40;99.90;;;;;;5062608;28;20200;-68
2021/03/21 04:24:20;;;;;;;16.27;2.70;;;6.30;99.90;;;;;;5062624;28;20160;-67
2021/03/21 04:26:55;;;;;;;13.18;3.28;;;6.30;99.90;;;;;;5062934;28;20053;-67
2021/03/21 04:29:31;;;;;;;14.20;2.63;;;6.40;99.90;;;;;;5063070;28;20449;-67
2021/03/21 04:32:01;;;;;;;13.65;2.70;;;6.50;99.90;;;;;;5062794;28;20057;-68
2021/03/21 04:34:29;;;;;;;10.85;3.05;;;6.40;99.90;;;;;;5065307;28;20049;-67
2021/03/21 04:36:58;;;;;;;13.30;3.05;;;6.50;99.90;;;;;;5078027;28;20045;-68
2021/03/21 04:39:30;;;;;;;12.52;2.35;;;6.60;99.90;;;;;;5086187;28;20041;-67
2021/03/21 04:42:05;;;;;;;12.98;1.92;;;6.70;99.90;;;;;;5085653;28;20036;-67
2021/03/21 04:44:37;;;;;;;15.73;2.45;;;6.60;99.90;;;;;;5085117;28;20435;-67
2021/03/21 04:47:15;;;;;;;14.98;2.30;;;6.60;99.90;;;;;;5085717;28;20045;-68
2021/03/21 04:49:41;;;;;;;12.73;2.00;;;6.50;99.90;;;;;;5084948;28;20497;-67
2021/03/21 04:52:15;;;;;;;21.50;3.40;;;6.50;99.90;;;;;;5084267;28;20068;-68
2021/03/21 04:54:42;;;;;;;14.00;2.10;;;6.60;99.90;;;;;;5084638;28;20049;-67
2021/03/21 04:57:36;;;;;;;15.75;2.83;;;6.60;99.90;;;;;;5084729;28;20044;-68
2021/03/21 05:00:11;;;;;;;13.85;2.28;;;6.60;99.90;;;;;;5084764;28;20127;-67
2021/03/21 05:02:38;;;;;;;8.18;1.67;;;6.50;99.90;;;;;;5084925;28;20575;-67
2021/03/21 05:05:25;;;;;;;15.93;2.60;;;6.60;99.90;;;;;;5085042;28;20040;-68
2021/03/21 05:08:27;;;;;;;16.73;2.60;;;6.50;99.90;;;;;;5081483;28;20056;-67
2021/03/21 05:10:58;;;;;;;13.43;2.25;;;6.40;99.90;;;;;;5081015;28;20044;-67
2021/03/21 05:13:44;;;;;;;15.15;2.45;;;6.50;99.90;;;;;;5084491;28;20052;-67
2021/03/21 05:16:24;;;;;;;13.15;2.83;;;6.60;99.90;;;;;;5084776;28;20048;-67
2021/03/21 05:18:59;;;;;;;13.82;2.25;;;6.50;99.90;;;;;;5085006;28;20064;-67
2021/03/21 05:21:42;;;;;;;14.93;2.40;;;6.50;99.90;;;;;;5084591;28;20097;-68
2021/03/21 05:24:23;;;;;;;12.05;1.80;;;6.40;99.90;;;;;;5085160;28;20063;-68
2021/03/21 05:27:08;;;;;;;11.80;2.30;;;6.50;99.20;;;;;;5084877;28;20101;-67
2021/03/21 05:29:57;;;;;;;13.45;2.33;;;6.50;99.20;;;;;;5084642;28;20103;-67
2021/03/21 05:32:24;;;;;;;15.50;2.47;;;6.50;97.90;;;;;;5085220;28;20113;-67
2021/03/21 05:34:55;;;;;;;12.27;2.20;;;6.60;98.00;;;;;;5084819;28;20063;-68
2021/03/21 05:37:23;;;;;;;10.77;1.90;;;6.50;98.40;;;;;;5084217;28;20044;-67
2021/03/21 05:40:02;;;;;;;13.63;2.35;;;6.40;99.10;;;;;;5099925;28;20115;-67
2021/03/21 05:42:46;;;;;;;13.02;2.35;;;6.20;99.80;;;;;;5084305;28;20435;-67
2021/03/21 05:45:50;;;;;;;13.90;2.47;;;6.10;99.90;;;;;;5084148;28;20032;-67
2021/03/21 05:48:27;;;;;;;9.07;2.15;;;6.20;99.80;;;;;;5074282;28;20068;-67
2021/03/21 05:51:08;;;;;;;12.60;2.33;;;6.30;99.80;;;;;;5084927;28;20044;-68
2021/03/21 05:53:43;;;;;;;18.67;3.67;;;6.30;99.30;;;;;;5077147;28;20033;-68
2021/03/21 05:56:30;;;;;;;16.08;2.92;;;6.30;99.20;;;;;;5071430;28;20102;-68
2021/03/21 05:59:34;;;;;;;15.23;2.35;;;6.40;98.90;;;;;;5084518;28;20045;-67
2021/03/21 06:02:15;;;;;;;11.98;3.08;;;6.50;98.40;;;;;;5080861;28;20108;-67
2021/03/21 06:05:02;;;;;;;15.13;2.55;;;6.50;98.10;;;;;;5088245;28;20135;-67
2021/03/21 06:07:49;;;;;;;15.23;2.58;;;6.50;98.10;;;;;;5086861;28;20104;-67
2021/03/21 06:10:49;;;;;;;12.65;2.30;;;6.50;98.00;;;;;;5088337;28;20048;-67
2021/03/21 06:13:39;;;;;;;15.05;2.15;;;6.60;96.70;;;;;;5088061;28;20120;-67
2021/03/21 06:16:33;;;;;;;14.93;3.17;;;6.60;96.00;;;;;;5077565;28;20052;-67
2021/03/21 06:19:23;;;;;;;14.85;2.95;;;6.70;95.20;;;;;;5087377;28;20136;-67
2021/03/21 06:22:14;;;;;;;18.38;2.88;;;6.70;95.40;;;;;;5087796;28;20128;-67
2021/03/21 06:24:48;;;;;;;20.92;4.22;;;6.70;94.60;;;;;;5087327;28;20451;-68
2021/03/21 06:27:29;;;;;;;15.15;2.63;;;6.80;94.10;;;;;;5085317;28;20408;-67
2021/03/21 06:30:28;;;;;;;28.55;3.65;;;6.90;94.20;;;;;;5087774;28;20051;-68
2021/03/21 06:33:09;;;;;;;20.25;3.28;;;6.80;94.90;;;;;;5086970;28;20056;-67
2021/03/21 06:35:35;;;;;;;23.63;3.97;;;6.70;95.10;;;;;;5078267;28;20052;-67
2021/03/21 06:38:35;;;;;;;28.40;4.43;;;6.60;95.70;;;;;;5087309;28;20062;-67
2021/03/21 06:41:15;;;;;;;20.33;3.50;;;6.70;95.80;;;;;;5087966;28;20045;-67
2021/03/21 06:43:56;;;;;;;24.27;3.58;;;6.70;95.60;;;;;;5082234;28;20041;-67
2021/03/21 06:46:34;;;;;;;20.92;3.22;;;6.70;95.70;;;;;;5087138;28;20048;-67
2021/03/21 06:49:22;;;;;;;23.88;3.60;;;6.70;95.90;;;;;;5088090;28;20044;-67
2021/03/21 06:51:53;;;;;;;25.10;3.58;;;6.70;96.50;;;;;;5087322;28;20041;-67
2021/03/21 06:54:29;;;;;;;18.30;4.03;;;6.70;96.40;;;;;;5086760;28;20037;-67
2021/03/21 06:57:04;;;;;;;18.95;4.00;;;6.70;96.70;;;;;;5085423;28;20459;-67
2021/03/21 06:59:39;;;;;;;24.60;3.90;;;6.70;96.60;;;;;;5074926;28;20049;-68
2021/03/21 07:02:11;;;;;;;22.65;3.97;;;6.60;97.30;;;;;;5103666;28;20060;-67
2021/03/21 07:05:03;;;;;;;25.45;4.95;;;6.90;96.70;;;;;;5087105;28;20086;-68
2021/03/21 07:08:05;;;;;;;25.63;4.60;;;7.00;95.90;;;;;;5086651;28;20036;-67
2021/03/21 07:10:52;;;;;;;29.85;5.28;;;6.80;96.20;;;;;;5086672;28;20433;-67
2021/03/21 07:13:27;;;;;;;26.95;5.22;;;6.90;94.50;;;;;;5086047;28;20040;-67
2021/03/21 07:16:17;;;;;;;26.77;5.18;;;7.00;94.00;;;;;;5074134;28;20036;-67
2021/03/21 07:19:17;;;;;;;30.63;5.03;;;6.90;94.30;;;;;;5086912;28;20045;-68
2021/03/21 07:21:51;;;;;;;20.10;4.55;;;6.90;93.70;;;;;;5072977;28;20049;-67
2021/03/21 07:24:26;;;;;;;22.27;3.85;;;6.90;93.30;;;;;;5086195;28;20048;-68
2021/03/21 07:27:11;;;;;;;27.88;4.18;;;7.00;93.00;;;;;;5086344;28;20055;-67
2021/03/21 07:29:50;;;;;;;25.80;4.53;;;7.00;93.50;;;;;;5079114;28;20067;-67
2021/03/21 07:32:42;;;;;;;27.25;4.20;;;7.00;93.20;;;;;;5073867;28;20052;-67
2021/03/21 07:35:22;;;;;;;19.73;3.92;;;7.10;93.40;;;;;;5086935;28;20068;-67
2021/03/21 07:38:14;;;;;;;27.05;4.15;;;7.20;92.60;;;;;;5087203;28;20044;-67
2021/03/21 07:40:49;;;;;;;22.73;4.65;;;7.20;93.20;;;;;;5075879;28;20055;-67
2021/03/21 07:43:22;;;;;;;34.17;5.85;;;7.10;92.90;;;;;;5085909;28;20137;-67
2021/03/21 07:46:20;;;;;;;29.10;5.00;;;7.00;93.00;;;;;;5077338;28;20115;-67
2021/03/21 07:49:19;;;;;;;27.98;4.40;;;7.00;93.40;;;;;;5063766;28;20045;-67
2021/03/21 07:51:58;;;;;;;21.83;4.40;;;7.10;92.60;;;;;;5063580;28;20063;-67
2021/03/21 07:54:48;;;;;;;23.85;3.88;;;7.20;91.80;;;;;;5063020;28;20079;-67
2021/03/21 07:57:18;;;;;;;;;;;7.30;91.80;;;;;;5064158;28;20067;-67
2021/03/21 07:59:46;;;;;;;37.88;5.60;;;7.50;92.30;;;;;;5064423;28;19920;-67
2021/03/21 08:02:15;;;;;;;26.70;4.85;;;7.40;92.40;;;;;;5063902;28;20203;-67
2021/03/21 08:04:48;;;;;;;22.95;3.55;;;7.30;92.70;;;;;;5045922;28;20051;-67
2021/03/21 08:07:28;;;;;;;25.38;5.75;;;7.40;92.60;;;;;;5063422;28;20056;-67
2021/03/21 08:09:54;;;;;;;24.27;4.10;;;7.50;92.60;;;;;;5063652;28;20128;-67
2021/03/21 08:12:21;;;;;;;26.58;5.07;;;7.50;91.50;;;;;;5064154;28;20053;-67
2021/03/21 08:14:55;;;;;;;25.55;4.78;;;7.60;91.90;;;;;;5063983;28;20077;-68
2021/03/21 08:17:29;;;;;;;28.27;4.93;;;7.70;91.80;;;;;;5063716;28;20087;-67
2021/03/21 08:20:18;;;;;;;36.50;6.45;;;7.50;92.40;;;;;;5064263;28;20045;-67
2021/03/21 08:22:44;;;;;;;24.27;5.18;;;7.40;92.80;;;;;;5064003;28;20057;-67
2021/03/21 08:25:27;;;;;;;33.75;5.13;;;7.60;92.10;;;;;;5076317;28;20070;-67
2021/03/21 08:27:56;;;;;;;31.05;4.85;;;7.70;91.30;;;;;;5072600;28;20040;-67
2021/03/21 08:30:28;;;;;;;29.65;5.18;;;7.70;92.30;;;;;;5086247;28;20037;-67
2021/03/21 08:33:01;;;;;;;38.55;5.60;;;7.80;91.80;;;;;;5073510;28;20052;-68
2021/03/21 08:35:30;;;;;;;27.38;4.60;;;7.80;91.50;;;;;;5085931;28;20558;-67
2021/03/21 08:37:58;;;;;;;33.83;5.80;;;7.80;92.40;;;;;;5085897;28;20045;-67
2021/03/21 08:40:34;;;;;;;29.20;5.20;;;7.90;91.90;;;;;;5085193;28;20056;-67
2021/03/21 08:43:12;;;;;;;20.85;4.18;;;7.90;90.90;;;;;;5084513;28;20044;-68
2021/03/21 08:45:49;;;;;;;26.90;4.82;;;7.90;91.20;;;;;;5084631;28;20040;-67
2021/03/21 08:48:21;;;;;;;24.88;4.80;;;8.00;90.90;;;;;;5078301;28;20040;-67
2021/03/21 08:50:52;;;;;;;21.83;4.88;;;8.10;91.00;;;;;;5083218;28;20496;-68
2021/03/21 08:53:56;;;;;;;26.65;4.38;;;8.30;90.00;;;;;;5082064;28;20076;-67
2021/03/21 08:56:22;;;;;;;29.50;5.18;;;8.20;89.60;;;;;;5083919;28;20045;-67
2021/03/21 08:59:09;;;;;;;30.88;5.05;;;8.10;88.90;;;;;;5082413;28;20044;-67
2021/03/21 09:01:35;;;;;;;28.88;4.80;;;8.00;90.40;;;;;;5082271;28;20055;-68
2021/03/21 09:04:14;;;;;;;30.08;5.00;;;8.10;90.60;;;;;;5075439;28;20041;-68
2021/03/21 09:06:43;;;;;;;27.80;4.88;;;8.20;89.90;;;;;;5083106;28;20104;-66
2021/03/21 09:09:38;;;;;;;22.70;5.00;;;8.30;88.40;;;;;;5078618;28;20052;-68
2021/03/21 09:12:23;;;;;;;31.85;5.47;;;8.30;89.00;;;;;;5083630;28;20044;-68
2021/03/21 09:14:51;;;;;;;29.30;4.40;;;8.30;89.90;;;;;;5082673;28;20048;-67
2021/03/21 09:17:26;;;;;;;28.20;4.72;;;8.40;89.30;;;;;;5082935;28;20048;-65
2021/03/21 09:20:03;;;;;;;20.63;4.25;;;8.50;86.80;;;;;;5082730;28;20143;-67
2021/03/21 09:22:40;;;;;;;26.02;4.40;;;8.50;87.90;;;;;;5082576;28;20060;-67
2021/03/21 09:25:30;;;;;;;22.63;5.20;;;8.40;86.70;;;;;;5073600;28;20055;-68
2021/03/21 09:27:58;;;;;;;17.63;3.70;;;8.50;87.20;;;;;;5078403;28;20055;-67
2021/03/21 09:30:36;;;;;;;24.27;4.38;;;8.60;87.70;;;;;;5077059;28;20405;-67
2021/03/21 09:33:05;;;;;;;27.58;5.18;;;8.80;84.20;;;;;;5079870;28;20072;-67
2021/03/21 09:35:42;;;;;;;25.08;4.30;;;8.70;86.00;;;;;;5073943;28;20048;-67
2021/03/21 09:38:18;;;;;;;27.50;4.85;;;8.80;83.80;;;;;;5079855;28;20214;-67
2021/03/21 09:40:49;;;;;;;27.05;5.50;;;8.80;84.50;;;;;;5079780;28;20071;-66
2021/03/21 09:43:20;;;;;;;29.83;5.07;;;8.80;84.70;;;;;;5083749;28;20044;-69
2021/03/21 09:45:53;;;;;;;27.63;4.88;;;8.90;84.20;;;;;;5085633;28;20058;-67
2021/03/21 09:48:37;;;;;;;28.60;4.60;;;9.00;82.00;;;;;;5082717;28;20049;-67
2021/03/21 09:51:14;;;;;;;21.67;4.07;;;8.90;83.70;;;;;;5078162;28;20075;-67
2021/03/21 09:54:01;;;;;;;25.38;4.63;;;8.70;85.30;;;;;;5087254;28;20173;-67
2021/03/21 09:56:47;;;;;;;34.38;5.07;;;8.70;85.70;;;;;;5088949;28;20052;-67
2021/03/21 09:59:32;;;;;;;27.52;4.75;;;8.70;87.20;;;;;;5077093;28;20044;-67
2021/03/21 10:02:20;;;;;;;36.75;5.53;;;8.70;86.30;;;;;;5085234;28;20052;-67
2021/03/21 10:05:00;;;;;;;29.48;5.15;;;8.60;84.10;;;;;;5087821;28;20060;-67
2021/03/21 10:07:46;;;;;;;27.75;4.47;;;8.60;85.10;;;;;;5088255;28;20098;-73
2021/03/21 10:10:32;;;;;;;26.42;5.57;;;8.40;86.90;;;;;;5082004;28;20049;-73
2021/03/21 10:12:59;;;;;;;25.67;5.97;;;8.80;84.90;;;;;;5058971;28;20116;-70
2021/03/21 10:15:27;;;;;;;31.67;4.70;;;8.80;83.20;;;;;;5066458;28;20080;-71
2021/03/21 10:18:00;;;;;;;29.08;5.15;;;9.00;82.70;;;;;;5069172;28;20130;-71
2021/03/21 10:20:52;;;;;;;30.13;4.88;;;8.90;81.30;;;;;;5059889;28;20120;-73
2021/03/21 10:23:18;;;;;;;21.65;4.20;;;8.80;83.00;;;;;;5082781;28;20575;-73
2021/03/21 10:25:43;;;;;;;27.10;4.82;;;8.90;81.90;;;;;;5072012;28;20036;-73
2021/03/21 10:28:33;;;;;;;33.47;4.63;;;9.00;81.80;;;;;;5079453;28;20075;-69
2021/03/21 10:31:27;;;;;;;25.02;5.38;;;8.90;83.20;;;;;;5080351;28;20068;-71
2021/03/21 10:34:15;;;;;;;31.50;5.43;;;9.00;80.90;;;;;;5074119;28;20049;-71
2021/03/21 10:36:41;;;;;;;24.98;4.30;;;9.00;81.20;;;;;;5070813;28;20044;-72
2021/03/21 10:39:32;;;;;;;28.00;5.05;;;8.90;81.70;;;;;;5083295;28;20049;-72
2021/03/21 10:42:09;;;;;;;20.17;4.00;;;8.90;79.50;;;;;;5074912;28;20048;-71
2021/03/21 10:44:35;;;;;;;23.52;4.85;;;9.10;80.90;;;;;;5081951;28;20040;-72
2021/03/21 10:47:25;;;;;;;22.45;3.60;;;9.20;80.90;;;;;;5087257;28;20067;-71
2021/03/21 10:49:56;;;;;;;24.23;4.78;;;9.30;79.90;;;;;;5060908;28;20056;-69
2021/03/21 10:52:35;;;;;;;25.52;4.47;;;9.30;78.90;;;;;;5066919;28;20113;-68
2021/03/21 10:57:43;;;;;;;30.30;5.63;;;9.20;80.00;;;;;;5094807;28;20040;-75
2021/03/21 11:00:26;;;;;;;27.83;5.82;;;9.10;81.50;;;;;;5070337;28;20052;-70
2021/03/21 11:03:01;;;;;;;28.95;5.45;;;9.20;83.20;;;;;;5081478;28;20306;-70
2021/03/21 11:05:43;;;;;;;29.45;4.75;;;9.10;83.70;;;;;;5068278;28;20048;-70
2021/03/21 11:08:18;;;;;;;29.83;5.07;;;9.20;82.60;;;;;;5088345;28;20485;-71
2021/03/21 11:10:53;;;;;;;31.45;5.70;;;9.40;80.00;;;;;;5071199;28;20052;-70
2021/03/21 11:13:33;;;;;;;31.85;5.30;;;9.40;79.70;;;;;;5077013;28;20630;-69
2021/03/21 11:16:11;;;;;;;24.77;4.95;;;9.20;81.10;;;;;;5056284;28;20075;-69
2021/03/21 11:18:37;;;;;;;23.15;4.75;;;9.30;81.60;;;;;;5086269;28;20075;-68
2021/03/21 11:21:14;;;;;;;29.67;5.90;;;9.30;81.30;;;;;;5070662;28;20111;-71
2021/03/21 11:23:45;;;;;;;25.25;4.72;;;9.20;83.30;;;;;;5075555;28;20048;-71
2021/03/21 11:26:25;;;;;;;23.20;4.15;;;9.30;79.20;;;;;;5081125;28;20052;-71
2021/03/21 11:29:22;;;;;;;23.75;5.78;;;9.40;79.40;;;;;;5083639;28;20040;-71
2021/03/21 11:31:51;;;;;;;21.30;4.75;;;9.70;79.20;;;;;;5071572;28;20096;-71
2021/03/21 11:34:25;;;;;;;28.27;5.20;;;9.60;80.00;;;;;;5062484;28;20049;-70
2021/03/21 11:37:06;;;;;;;25.67;4.65;;;9.70;79.90;;;;;;5082632;28;20185;-69
2021/03/21 11:39:34;;;;;;;20.88;4.68;;;9.90;78.80;;;;;;5085493;28;20041;-71
2021/03/21 11:42:01;;;;;;;24.10;4.55;;;10.00;75.90;;;;;;5088654;28;20059;-71
2021/03/21 11:44:30;;;;;;;25.55;5.57;;;10.00;76.20;;;;;;5080310;28;20051;-71
2021/03/21 11:47:14;;;;;;;29.15;5.45;;;9.90;77.60;;;;;;5097401;28;20039;-71
2021/03/21 11:49:41;;;;;;;21.58;5.22;;;9.80;79.50;;;;;;5078620;28;20104;-71
2021/03/21 11:52:08;;;;;;;21.38;4.50;;;9.90;78.70;;;;;;5099047;28;20064;-71
2021/03/21 11:54:36;;;;;;;26.95;4.18;;;9.90;76.90;;;;;;5080843;28;20525;-71
2021/03/21 11:57:30;;;;;;;29.25;5.35;;;10.00;74.50;;;;;;5101720;27;20036;-71
2021/03/21 12:00:19;;;;;;;23.35;4.63;;;10.00;74.70;;;;;;5075190;28;20536;-71
2021/03/21 12:03:20;;;;;;;19.50;4.13;;;10.00;75.40;;;;;;5047822;28;20049;-70
2021/03/21 12:06:00;;;;;;;22.50;4.22;;;10.10;75.80;;;;;;5045820;28;20539;-71
2021/03/21 12:08:39;;;;;;;;;;;10.10;76.00;;;;;;5083663;28;20267;-71
2021/03/21 12:11:36;;;;;;;28.02;4.50;;;10.10;75.30;;;;;;5075494;28;20021;-71
2021/03/21 12:14:31;;;;;;;23.25;4.63;;;9.90;75.50;;;;;;5081242;28;20071;-71
2021/03/21 12:17:19;;;;;;;27.30;5.70;;;9.90;74.90;;;;;;5075309;28;20059;-71
2021/03/21 12:19:45;;;;;;;29.17;5.20;;;10.00;72.90;;;;;;5078730;28;20033;-71
2021/03/21 12:22:39;;;;;;;25.15;4.57;;;9.70;74.20;;;;;;5083454;28;20048;-71
2021/03/21 12:25:25;;;;;;;22.92;3.70;;;9.90;75.40;;;;;;5060255;28;20057;-71
2021/03/21 12:28:01;;;;;;;28.95;5.50;;;10.00;75.40;;;;;;5053572;28;20108;-71
2021/03/21 12:31:06;;;;;;;24.25;3.97;;;10.20;74.70;;;;;;5051550;28;20048;-71
2021/03/21 12:33:37;;;;;;;25.20;5.60;;;10.20;74.30;;;;;;5072586;28;20106;-71
2021/03/21 12:36:03;;;;;;;34.38;4.97;;;9.90;75.20;;;;;;5073651;28;20048;-71
2021/03/21 12:38:34;;;;;;;25.95;5.13;;;10.10;76.10;;;;;;5086289;28;20044;-71
2021/03/21 12:41:30;;;;;;;21.30;5.03;;;10.10;76.70;;;;;;5074288;28;20044;-71
2021/03/21 12:44:17;;;;;;;25.65;5.00;;;10.10;75.10;;;;;;5082760;28;20051;-71
2021/03/21 12:46:56;;;;;;;23.30;4.93;;;10.20;76.30;;;;;;5070302;28;20329;-71
2021/03/21 12:49:39;;;;;;;23.73;4.53;;;10.10;77.00;;;;;;5080780;28;20114;-71
2021/03/21 12:52:29;;;;;;;20.88;4.80;;;10.20;72.60;;;;;;5065621;28;20276;-71
2021/03/21 12:54:55;;;;;;;28.45;5.80;;;10.00;74.70;;;;;;5081531;28;20047;-71
2021/03/21 12:57:21;;;;;;;23.40;3.78;;;9.70;77.40;;;;;;5084883;28;20048;-71
2021/03/21 12:59:52;;;;;;;25.83;5.57;;;9.80;75.40;;;;;;5077944;28;20049;-71
2021/03/21 13:02:25;;;;;;;31.08;4.82;;;9.70;75.40;;;;;;5082168;28;20106;-70
2021/03/21 13:04:51;;;;;;;26.77;4.68;;;9.80;75.60;;;;;;5079095;28;20055;-71
2021/03/21 13:07:19;;;;;;;23.02;3.58;;;9.70;76.50;;;;;;5072028;28;20053;-71
2021/03/21 13:09:45;;;;;;;18.30;3.50;;;9.80;75.00;;;;;;5073759;28;20117;-70
2021/03/21 13:12:11;;;;;;;18.98;4.57;;;9.70;76.20;;;;;;5072873;28;20131;-71
2021/03/21 13:14:38;;;;;;;19.13;4.28;;;9.80;76.40;;;;;;5079965;28;20052;-71
2021/03/21 13:17:04;;;;;;;19.80;4.05;;;9.70;76.10;;;;;;5082245;28;20286;-70
2021/03/21 13:19:30;;;;;;;26.73;4.55;;;9.70;74.70;;;;;;5071168;28;20040;-70
2021/03/21 13:21:56;;;;;;;27.23;5.50;;;9.80;76.50;;;;;;5078701;28;20423;-70
2021/03/21 13:24:23;;;;;;;22.23;3.97;;;9.70;75.90;;;;;;5076102;28;20041;-71
2021/03/21 13:26:49;;;;;;;23.95;4.63;;;9.60;76.30;;;;;;5069448;28;20155;-71
2021/03/21 13:29:15;;;;;;;19.15;4.57;;;9.70;76.80;;;;;;5065043;28;20568;-71
2021/03/21 13:31:41;;;;;;;25.50;4.05;;;9.70;74.90;;;;;;5070058;28;20079;-71
2021/03/21 13:34:06;;;;;;;20.75;4.07;;;9.70;74.00;;;;;;5082709;28;20061;-71
2021/03/21 13:36:32;;;;;;;18.40;3.47;;;9.90;74.10;;;;;;5059497;28;20471;-71
2021/03/21 13:38:58;;;;;;;30.42;4.50;;;9.80;74.90;;;;;;5058916;28;20037;-71